sensor_id;sensor_type;location;lat;lon;timestamp;temperature;humidity
51615;DHT22;37695;52.960;6.188;2023-03-11T00:00:15;0.50;99.90
51615;DHT22;37695;52.960;6.188;2023-03-11T00:02:47;0.50;99.90
51615;DHT22;37695;52.960;6.188;2023-03-11T00:05:23;0.50;99.90
51615;DHT22;37695;52.960;6.188;2023-03-11T00:07:50;0.50;99.90
51615;DHT22;37695;52.960;6.188;2023-03-11T00:10:18;0.50;99.90
51615;DHT22;37695;52.960;6.188;2023-03-11T00:12:44;0.60;99.90
51615;DHT22;37695;52.960;6.188;2023-03-11T00:15:11;0.50;99.90
51615;DHT22;37695;52.960;6.188;2023-03-11T00:17:37;0.50;99.90
51615;DHT22;37695;52.960;6.188;2023-03-11T00:20:04;0.50;99.90
51615;DHT22;37695;52.960;6.188;2023-03-11T00:22:30;0.50;99.90
51615;DHT22;37695;52.960;6.188;2023-03-11T00:24:55;0.50;99.90
51615;DHT22;37695;52.960;6.188;2023-03-11T00:27:21;0.40;99.90
51615;DHT22;37695;52.960;6.188;2023-03-11T00:29:46;0.40;99.90
51615;DHT22;37695;52.960;6.188;2023-03-11T00:32:12;0.40;99.90
51615;DHT22;37695;52.960;6.188;2023-03-11T00:34:37;0.40;99.90
51615;DHT22;37695;52.960;6.188;2023-03-11T00:37:03;0.40;99.90
51615;DHT22;37695;52.960;6.188;2023-03-11T00:39:28;0.50;99.90
51615;DHT22;37695;52.960;6.188;2023-03-11T00:41:54;0.50;99.90
51615;DHT22;37695;52.960;6.188;2023-03-11T00:44:21;0.50;99.90
51615;DHT22;37695;52.960;6.188;2023-03-11T00:46:46;0.50;99.90
51615;DHT22;37695;52.960;6.188;2023-03-11T00:49:12;0.50;99.90
51615;DHT22;37695;52.960;6.188;2023-03-11T00:51:38;0.40;99.90
51615;DHT22;37695;52.960;6.188;2023-03-11T00:54:04;0.40;99.90
51615;DHT22;37695;52.960;6.188;2023-03-11T00:56:29;0.30;99.90
51615;DHT22;37695;52.960;6.188;2023-03-11T00:58:55;0.40;99.90
51615;DHT22;37695;52.960;6.188;2023-03-11T01:01:21;0.40;99.90
51615;DHT22;37695;52.960;6.188;2023-03-11T01:03:47;0.40;99.90
51615;DHT22;37695;52.960;6.188;2023-03-11T01:06:13;0.50;99.90
51615;DHT22;37695;52.960;6.188;2023-03-11T01:08:39;0.50;99.90
51615;DHT22;37695;52.960;6.188;2023-03-11T01:11:06;0.50;99.90
51615;DHT22;37695;52.960;6.188;2023-03-11T01:13:33;0.40;99.90
51615;DHT22;37695;52.960;6.188;2023-03-11T01:15:59;0.40;99.90
51615;DHT22;37695;52.960;6.188;2023-03-11T01:18:25;0.30;99.90
51615;DHT22;37695;52.960;6.188;2023-03-11T01:20:51;0.30;99.90
51615;DHT22;37695;52.960;6.188;2023-03-11T01:23:17;0.40;99.90
51615;DHT22;37695;52.960;6.188;2023-03-11T01:25:43;0.40;99.90
51615;DHT22;37695;52.960;6.188;2023-03-11T01:28:09;0.40;99.90
51615;DHT22;37695;52.960;6.188;2023-03-11T01:30:36;0.60;99.90
51615;DHT22;37695;52.960;6.188;2023-03-11T01:33:03;0.40;99.90
51615;DHT22;37695;52.960;6.188;2023-03-11T01:35:29;0.30;99.90
51615;DHT22;37695;52.960;6.188;2023-03-11T01:37:56;0.30;99.90
51615;DHT22;37695;52.960;6.188;2023-03-11T01:40:32;0.40;99.90
51615;DHT22;37695;52.960;6.188;2023-03-11T01:42:59;0.30;99.90
51615;DHT22;37695;52.960;6.188;2023-03-11T01:48:11;0.30;99.90
51615;DHT22;37695;52.960;6.188;2023-03-11T01:50:42;0.30;99.90
51615;DHT22;37695;52.960;6.188;2023-03-11T01:53:10;0.30;99.90
51615;DHT22;37695;52.960;6.188;2023-03-11T01:55:36;0.30;99.90
51615;DHT22;37695;52.960;6.188;2023-03-11T01:58:05;0.30;99.90
51615;DHT22;37695;52.960;6.188;2023-03-11T02:00:31;0.30;99.90
51615;DHT22;37695;52.960;6.188;2023-03-11T02:02:59;0.30;99.90
51615;DHT22;37695;52.960;6.188;2023-03-11T02:05:26;0.30;99.90
51615;DHT22;37695;52.960;6.188;2023-03-11T02:07:54;0.40;99.90
51615;DHT22;37695;52.960;6.188;2023-03-11T02:10:20;0.30;99.90
51615;DHT22;37695;52.960;6.188;2023-03-11T02:12:47;0.30;99.90
51615;DHT22;37695;52.960;6.188;2023-03-11T02:15:16;0.30;99.90
51615;DHT22;37695;52.960;6.188;2023-03-11T02:17:42;0.20;99.90
51615;DHT22;37695;52.960;6.188;2023-03-11T02:20:35;0.10;99.90
51615;DHT22;37695;52.960;6.188;2023-03-11T02:23:02;0.00;99.90
51615;DHT22;37695;52.960;6.188;2023-03-11T02:28:11;-0.10;99.90
51615;DHT22;37695;52.960;6.188;2023-03-11T02:30:42;-0.20;99.90
51615;DHT22;37695;52.960;6.188;2023-03-11T02:33:09;-0.20;99.90
51615;DHT22;37695;52.960;6.188;2023-03-11T02:35:35;-0.20;99.90
51615;DHT22;37695;52.960;6.188;2023-03-11T02:38:00;-0.20;99.90
51615;DHT22;37695;52.960;6.188;2023-03-11T02:40:30;-0.30;99.90
51615;DHT22;37695;52.960;6.188;2023-03-11T02:43:10;-0.30;99.90
51615;DHT22;37695;52.960;6.188;2023-03-11T02:45:38;-0.30;99.90
51615;DHT22;37695;52.960;6.188;2023-03-11T02:48:06;-0.30;99.90
51615;DHT22;37695;52.960;6.188;2023-03-11T02:50:34;-0.30;99.90
51615;DHT22;37695;52.960;6.188;2023-03-11T02:53:02;-0.40;99.90
51615;DHT22;37695;52.960;6.188;2023-03-11T02:55:28;-0.50;99.90
51615;DHT22;37695;52.960;6.188;2023-03-11T02:57:54;-0.60;99.90
51615;DHT22;37695;52.960;6.188;2023-03-11T03:00:20;-0.60;99.90
51615;DHT22;37695;52.960;6.188;2023-03-11T03:02:45;-0.70;99.90
51615;DHT22;37695;52.960;6.188;2023-03-11T03:05:12;-0.70;99.90
51615;DHT22;37695;52.960;6.188;2023-03-11T03:07:38;-0.70;99.90
51615;DHT22;37695;52.960;6.188;2023-03-11T03:10:05;-0.60;99.90
51615;DHT22;37695;52.960;6.188;2023-03-11T03:12:31;-0.60;99.90
51615;DHT22;37695;52.960;6.188;2023-03-11T03:14:56;-0.60;99.90
51615;DHT22;37695;52.960;6.188;2023-03-11T03:17:23;-0.60;99.90
51615;DHT22;37695;52.960;6.188;2023-03-11T03:19:48;-0.60;99.90
51615;DHT22;37695;52.960;6.188;2023-03-11T03:22:14;-0.50;99.90
51615;DHT22;37695;52.960;6.188;2023-03-11T03:24:40;-0.50;99.90
51615;DHT22;37695;52.960;6.188;2023-03-11T03:27:06;-0.50;99.90
51615;DHT22;37695;52.960;6.188;2023-03-11T03:29:31;-0.50;99.90
51615;DHT22;37695;52.960;6.188;2023-03-11T03:31:57;-0.50;99.90
51615;DHT22;37695;52.960;6.188;2023-03-11T03:34:22;-0.50;99.90
51615;DHT22;37695;52.960;6.188;2023-03-11T03:36:48;-0.50;99.90
51615;DHT22;37695;52.960;6.188;2023-03-11T03:39:13;-0.50;99.90
51615;DHT22;37695;52.960;6.188;2023-03-11T03:41:39;-0.50;99.90
51615;DHT22;37695;52.960;6.188;2023-03-11T03:44:05;-0.50;99.90
51615;DHT22;37695;52.960;6.188;2023-03-11T03:46:30;-0.60;99.90
51615;DHT22;37695;52.960;6.188;2023-03-11T03:48:56;-0.70;99.90
51615;DHT22;37695;52.960;6.188;2023-03-11T03:51:22;-0.60;99.90
51615;DHT22;37695;52.960;6.188;2023-03-11T03:53:47;-0.60;99.90
51615;DHT22;37695;52.960;6.188;2023-03-11T03:56:17;-0.60;99.90
51615;DHT22;37695;52.960;6.188;2023-03-11T03:58:43;-0.70;99.90
51615;DHT22;37695;52.960;6.188;2023-03-11T04:01:09;-0.70;99.90
51615;DHT22;37695;52.960;6.188;2023-03-11T04:03:36;-0.70;99.90
51615;DHT22;37695;52.960;6.188;2023-03-11T04:08:43;-0.80;99.90
51615;DHT22;37695;52.960;6.188;2023-03-11T04:11:08;-0.90;99.90
51615;DHT22;37695;52.960;6.188;2023-03-11T04:13:34;-1.00;99.90
51615;DHT22;37695;52.960;6.188;2023-03-11T04:16:02;-1.00;99.90
51615;DHT22;37695;52.960;6.188;2023-03-11T04:18:28;-1.00;99.90
51615;DHT22;37695;52.960;6.188;2023-03-11T04:20:54;-1.10;99.90
51615;DHT22;37695;52.960;6.188;2023-03-11T04:23:19;-1.10;99.90
51615;DHT22;37695;52.960;6.188;2023-03-11T04:25:45;-1.10;99.90
51615;DHT22;37695;52.960;6.188;2023-03-11T04:28:10;-1.10;99.90
51615;DHT22;37695;52.960;6.188;2023-03-11T04:30:36;-1.10;99.90
51615;DHT22;37695;52.960;6.188;2023-03-11T04:33:02;-1.20;99.90
51615;DHT22;37695;52.960;6.188;2023-03-11T04:35:28;-1.20;99.90
51615;DHT22;37695;52.960;6.188;2023-03-11T04:37:53;-1.20;99.90
51615;DHT22;37695;52.960;6.188;2023-03-11T04:40:19;-1.30;99.90
51615;DHT22;37695;52.960;6.188;2023-03-11T04:42:44;-1.30;99.90
51615;DHT22;37695;52.960;6.188;2023-03-11T04:45:10;-1.30;99.90
51615;DHT22;37695;52.960;6.188;2023-03-11T04:47:36;-1.30;99.90
51615;DHT22;37695;52.960;6.188;2023-03-11T04:50:02;-1.30;99.90
51615;DHT22;37695;52.960;6.188;2023-03-11T04:52:28;-1.40;99.90
51615;DHT22;37695;52.960;6.188;2023-03-11T04:54:53;-1.40;99.90
51615;DHT22;37695;52.960;6.188;2023-03-11T04:57:19;-1.40;99.90
51615;DHT22;37695;52.960;6.188;2023-03-11T04:59:44;-1.40;99.90
51615;DHT22;37695;52.960;6.188;2023-03-11T05:02:10;-1.50;99.90
51615;DHT22;37695;52.960;6.188;2023-03-11T05:04:35;-1.40;99.90
51615;DHT22;37695;52.960;6.188;2023-03-11T05:07:01;-1.40;99.90
51615;DHT22;37695;52.960;6.188;2023-03-11T05:09:26;-1.40;99.90
51615;DHT22;37695;52.960;6.188;2023-03-11T05:11:52;-1.40;99.90
51615;DHT22;37695;52.960;6.188;2023-03-11T05:14:17;-1.50;99.90
51615;DHT22;37695;52.960;6.188;2023-03-11T05:16:43;-1.50;99.90
51615;DHT22;37695;52.960;6.188;2023-03-11T05:19:08;-1.50;99.90
51615;DHT22;37695;52.960;6.188;2023-03-11T05:21:52;-1.50;99.90
51615;DHT22;37695;52.960;6.188;2023-03-11T05:24:18;-1.50;99.90
51615;DHT22;37695;52.960;6.188;2023-03-11T05:26:44;-1.50;99.90
51615;DHT22;37695;52.960;6.188;2023-03-11T05:29:09;-1.50;99.90
51615;DHT22;37695;52.960;6.188;2023-03-11T05:31:35;-1.60;99.90
51615;DHT22;37695;52.960;6.188;2023-03-11T05:34:00;-1.60;99.90
51615;DHT22;37695;52.960;6.188;2023-03-11T05:36:26;-1.60;99.90
51615;DHT22;37695;52.960;6.188;2023-03-11T05:38:51;-1.60;99.90
51615;DHT22;37695;52.960;6.188;2023-03-11T05:41:18;-1.70;99.90
51615;DHT22;37695;52.960;6.188;2023-03-11T05:43:43;-1.70;99.90
51615;DHT22;37695;52.960;6.188;2023-03-11T05:46:09;-1.80;99.90
51615;DHT22;37695;52.960;6.188;2023-03-11T05:48:36;-1.80;99.90
51615;DHT22;37695;52.960;6.188;2023-03-11T05:51:09;-1.90;99.90
51615;DHT22;37695;52.960;6.188;2023-03-11T05:53:34;-2.00;99.90
51615;DHT22;37695;52.960;6.188;2023-03-11T05:56:00;-2.00;99.90
51615;DHT22;37695;52.960;6.188;2023-03-11T05:58:27;-2.00;99.90
51615;DHT22;37695;52.960;6.188;2023-03-11T06:00:53;-2.10;99.90
51615;DHT22;37695;52.960;6.188;2023-03-11T06:03:19;-2.10;99.90
51615;DHT22;37695;52.960;6.188;2023-03-11T06:05:48;-1.80;99.90
51615;DHT22;37695;52.960;6.188;2023-03-11T06:08:15;-2.10;99.90
51615;DHT22;37695;52.960;6.188;2023-03-11T06:10:41;-2.10;99.90
51615;DHT22;37695;52.960;6.188;2023-03-11T06:13:08;-2.10;99.90
51615;DHT22;37695;52.960;6.188;2023-03-11T06:15:34;-2.10;99.90
51615;DHT22;37695;52.960;6.188;2023-03-11T06:18:00;-2.10;99.90
51615;DHT22;37695;52.960;6.188;2023-03-11T06:20:25;-2.10;99.90
51615;DHT22;37695;52.960;6.188;2023-03-11T06:22:51;-2.10;99.90
51615;DHT22;37695;52.960;6.188;2023-03-11T06:25:17;-2.10;99.90
51615;DHT22;37695;52.960;6.188;2023-03-11T06:27:43;-2.10;99.90
51615;DHT22;37695;52.960;6.188;2023-03-11T06:30:09;-2.10;99.90
51615;DHT22;37695;52.960;6.188;2023-03-11T06:32:35;-2.10;99.90
51615;DHT22;37695;52.960;6.188;2023-03-11T06:35:02;-2.10;99.90
51615;DHT22;37695;52.960;6.188;2023-03-11T06:37:28;-2.10;99.90
51615;DHT22;37695;52.960;6.188;2023-03-11T06:39:54;-2.10;99.90
51615;DHT22;37695;52.960;6.188;2023-03-11T06:42:20;-2.10;99.90
51615;DHT22;37695;52.960;6.188;2023-03-11T06:44:48;-2.00;99.90
51615;DHT22;37695;52.960;6.188;2023-03-11T06:47:14;-2.00;99.90
51615;DHT22;37695;52.960;6.188;2023-03-11T06:49:40;-2.00;99.90
51615;DHT22;37695;52.960;6.188;2023-03-11T06:52:07;-2.00;99.90
51615;DHT22;37695;52.960;6.188;2023-03-11T06:54:33;-2.00;99.90
51615;DHT22;37695;52.960;6.188;2023-03-11T06:56:59;-1.60;99.90
51615;DHT22;37695;52.960;6.188;2023-03-11T06:59:24;-1.90;99.90
51615;DHT22;37695;52.960;6.188;2023-03-11T07:01:50;-1.90;99.90
51615;DHT22;37695;52.960;6.188;2023-03-11T07:04:15;-1.80;99.90
51615;DHT22;37695;52.960;6.188;2023-03-11T07:06:41;-1.80;99.90
51615;DHT22;37695;52.960;6.188;2023-03-11T07:09:07;-1.80;99.90
51615;DHT22;37695;52.960;6.188;2023-03-11T07:11:33;-1.70;99.90
51615;DHT22;37695;52.960;6.188;2023-03-11T07:13:59;-1.70;99.90
51615;DHT22;37695;52.960;6.188;2023-03-11T07:16:27;-1.60;99.90
51615;DHT22;37695;52.960;6.188;2023-03-11T07:18:57;-1.50;99.90
51615;DHT22;37695;52.960;6.188;2023-03-11T07:21:26;-1.50;99.90
51615;DHT22;37695;52.960;6.188;2023-03-11T07:23:53;-1.40;99.90
51615;DHT22;37695;52.960;6.188;2023-03-11T07:26:19;-1.40;99.90
51615;DHT22;37695;52.960;6.188;2023-03-11T07:28:45;-1.30;99.90
51615;DHT22;37695;52.960;6.188;2023-03-11T07:31:18;-1.20;99.90
51615;DHT22;37695;52.960;6.188;2023-03-11T07:33:44;-1.20;99.90
51615;DHT22;37695;52.960;6.188;2023-03-11T07:36:19;-1.10;99.90
51615;DHT22;37695;52.960;6.188;2023-03-11T07:38:45;-1.00;99.90
51615;DHT22;37695;52.960;6.188;2023-03-11T07:41:12;-1.00;99.90
51615;DHT22;37695;52.960;6.188;2023-03-11T07:43:39;-1.00;99.90
51615;DHT22;37695;52.960;6.188;2023-03-11T07:46:08;-0.90;99.90
51615;DHT22;37695;52.960;6.188;2023-03-11T07:48:35;-0.90;99.90
51615;DHT22;37695;52.960;6.188;2023-03-11T07:51:06;-0.80;99.90
51615;DHT22;37695;52.960;6.188;2023-03-11T07:53:32;-0.70;99.90
51615;DHT22;37695;52.960;6.188;2023-03-11T07:55:59;-0.70;99.90
51615;DHT22;37695;52.960;6.188;2023-03-11T07:58:25;-0.60;99.90
51615;DHT22;37695;52.960;6.188;2023-03-11T08:00:51;-0.50;99.90
51615;DHT22;37695;52.960;6.188;2023-03-11T08:03:17;-0.50;99.90
51615;DHT22;37695;52.960;6.188;2023-03-11T08:05:43;-0.50;99.90
51615;DHT22;37695;52.960;6.188;2023-03-11T08:08:08;-0.40;99.90
51615;DHT22;37695;52.960;6.188;2023-03-11T08:10:38;-0.30;99.90
51615;DHT22;37695;52.960;6.188;2023-03-11T08:13:04;-0.30;99.90
51615;DHT22;37695;52.960;6.188;2023-03-11T08:15:29;-0.20;99.90
51615;DHT22;37695;52.960;6.188;2023-03-11T08:17:55;0.00;99.90
51615;DHT22;37695;52.960;6.188;2023-03-11T08:20:20;0.00;99.90
51615;DHT22;37695;52.960;6.188;2023-03-11T08:22:46;0.30;99.90
51615;DHT22;37695;52.960;6.188;2023-03-11T08:25:12;0.30;99.90
51615;DHT22;37695;52.960;6.188;2023-03-11T08:27:37;0.40;99.90
51615;DHT22;37695;52.960;6.188;2023-03-11T08:30:04;0.50;99.90
51615;DHT22;37695;52.960;6.188;2023-03-11T08:32:30;0.60;99.90
51615;DHT22;37695;52.960;6.188;2023-03-11T08:34:56;0.70;99.90
51615;DHT22;37695;52.960;6.188;2023-03-11T08:37:22;0.70;99.90
51615;DHT22;37695;52.960;6.188;2023-03-11T08:39:47;0.80;99.90
51615;DHT22;37695;52.960;6.188;2023-03-11T08:42:13;1.00;99.90
51615;DHT22;37695;52.960;6.188;2023-03-11T08:44:38;1.20;99.90
51615;DHT22;37695;52.960;6.188;2023-03-11T08:47:04;1.40;99.90
51615;DHT22;37695;52.960;6.188;2023-03-11T08:49:30;1.50;99.90
51615;DHT22;37695;52.960;6.188;2023-03-11T08:51:55;1.70;99.90
51615;DHT22;37695;52.960;6.188;2023-03-11T08:54:21;1.80;99.90
51615;DHT22;37695;52.960;6.188;2023-03-11T08:56:46;1.90;99.90
51615;DHT22;37695;52.960;6.188;2023-03-11T08:59:13;2.30;99.90
51615;DHT22;37695;52.960;6.188;2023-03-11T09:01:38;2.20;99.90
51615;DHT22;37695;52.960;6.188;2023-03-11T09:04:04;2.30;99.90
51615;DHT22;37695;52.960;6.188;2023-03-11T09:06:30;2.60;99.90
51615;DHT22;37695;52.960;6.188;2023-03-11T09:08:56;2.60;99.90
51615;DHT22;37695;52.960;6.188;2023-03-11T09:11:21;2.50;99.90
51615;DHT22;37695;52.960;6.188;2023-03-11T09:13:47;2.60;99.90
51615;DHT22;37695;52.960;6.188;2023-03-11T09:16:15;2.70;99.90
51615;DHT22;37695;52.960;6.188;2023-03-11T09:18:41;2.80;99.90
51615;DHT22;37695;52.960;6.188;2023-03-11T09:21:07;2.80;99.90
51615;DHT22;37695;52.960;6.188;2023-03-11T09:23:32;2.80;99.90
51615;DHT22;37695;52.960;6.188;2023-03-11T09:25:58;2.90;99.90
51615;DHT22;37695;52.960;6.188;2023-03-11T09:28:23;3.00;99.90
51615;DHT22;37695;52.960;6.188;2023-03-11T09:30:49;3.00;99.90
51615;DHT22;37695;52.960;6.188;2023-03-11T09:33:15;3.10;99.90
51615;DHT22;37695;52.960;6.188;2023-03-11T09:35:40;3.10;99.90
51615;DHT22;37695;52.960;6.188;2023-03-11T09:38:06;3.20;99.90
51615;DHT22;37695;52.960;6.188;2023-03-11T09:40:58;3.30;99.90
51615;DHT22;37695;52.960;6.188;2023-03-11T09:43:58;3.30;99.90
51615;DHT22;37695;52.960;6.188;2023-03-11T09:52:23;3.50;99.90
51615;DHT22;37695;52.960;6.188;2023-03-11T09:54:54;3.50;99.90
51615;DHT22;37695;52.960;6.188;2023-03-11T09:57:23;3.60;99.90
51615;DHT22;37695;52.960;6.188;2023-03-11T09:59:50;3.70;99.90
51615;DHT22;37695;52.960;6.188;2023-03-11T10:02:20;3.70;99.90
51615;DHT22;37695;52.960;6.188;2023-03-11T10:05:14;3.80;99.90
51615;DHT22;37695;52.960;6.188;2023-03-11T10:07:51;3.90;99.90
51615;DHT22;37695;52.960;6.188;2023-03-11T10:10:18;4.00;99.90
51615;DHT22;37695;52.960;6.188;2023-03-11T10:13:09;4.00;99.90
51615;DHT22;37695;52.960;6.188;2023-03-11T10:15:48;4.10;99.90
51615;DHT22;37695;52.960;6.188;2023-03-11T10:18:48;4.20;99.90
51615;DHT22;37695;52.960;6.188;2023-03-11T10:21:32;4.30;99.90
51615;DHT22;37695;52.960;6.188;2023-03-11T10:24:22;4.30;99.90
51615;DHT22;37695;52.960;6.188;2023-03-11T10:26:58;4.40;99.90
51615;DHT22;37695;52.960;6.188;2023-03-11T10:29:51;4.40;99.90
51615;DHT22;37695;52.960;6.188;2023-03-11T10:34:55;4.50;99.90
51615;DHT22;37695;52.960;6.188;2023-03-11T10:37:28;4.60;99.90
51615;DHT22;37695;52.960;6.188;2023-03-11T10:40:09;4.60;99.90
51615;DHT22;37695;52.960;6.188;2023-03-11T10:42:43;4.70;99.90
51615;DHT22;37695;52.960;6.188;2023-03-11T10:45:13;4.70;99.90
51615;DHT22;37695;52.960;6.188;2023-03-11T10:47:39;4.80;99.90
51615;DHT22;37695;52.960;6.188;2023-03-11T10:50:04;4.80;99.90
51615;DHT22;37695;52.960;6.188;2023-03-11T10:52:30;4.80;99.90
51615;DHT22;37695;52.960;6.188;2023-03-11T10:55:01;4.90;99.90
51615;DHT22;37695;52.960;6.188;2023-03-11T10:57:35;4.90;99.90
51615;DHT22;37695;52.960;6.188;2023-03-11T11:00:05;5.00;99.90
51615;DHT22;37695;52.960;6.188;2023-03-11T11:02:50;5.00;99.90
51615;DHT22;37695;52.960;6.188;2023-03-11T11:07:44;5.10;99.90
51615;DHT22;37695;52.960;6.188;2023-03-11T11:12:58;5.20;99.90
51615;DHT22;37695;52.960;6.188;2023-03-11T11:15:33;5.30;99.90
51615;DHT22;37695;52.960;6.188;2023-03-11T11:18:01;5.30;99.90
51615;DHT22;37695;52.960;6.188;2023-03-11T11:20:29;5.40;99.90
51615;DHT22;37695;52.960;6.188;2023-03-11T11:22:57;5.40;99.90
51615;DHT22;37695;52.960;6.188;2023-03-11T11:25:29;5.40;99.90
51615;DHT22;37695;52.960;6.188;2023-03-11T11:28:17;5.50;99.90
51615;DHT22;37695;52.960;6.188;2023-03-11T11:30:56;5.60;99.90
51615;DHT22;37695;52.960;6.188;2023-03-11T11:33:38;5.70;99.90
51615;DHT22;37695;52.960;6.188;2023-03-11T11:36:04;5.70;99.90
51615;DHT22;37695;52.960;6.188;2023-03-11T11:38:31;5.70;99.90
51615;DHT22;37695;52.960;6.188;2023-03-11T11:41:00;5.70;99.90
51615;DHT22;37695;52.960;6.188;2023-03-11T11:43:55;5.80;99.90
51615;DHT22;37695;52.960;6.188;2023-03-11T11:49:04;5.90;99.90
51615;DHT22;37695;52.960;6.188;2023-03-11T11:56:37;5.90;99.90
51615;DHT22;37695;52.960;6.188;2023-03-11T11:59:16;5.80;99.90
51615;DHT22;37695;52.960;6.188;2023-03-11T12:04:35;5.80;99.90
51615;DHT22;37695;52.960;6.188;2023-03-11T12:12:31;5.70;99.90
51615;DHT22;37695;52.960;6.188;2023-03-11T12:15:05;5.70;99.90
51615;DHT22;37695;52.960;6.188;2023-03-11T12:17:37;5.70;99.90
51615;DHT22;37695;52.960;6.188;2023-03-11T12:20:21;5.70;99.90
51615;DHT22;37695;52.960;6.188;2023-03-11T12:26:11;5.80;99.90
51615;DHT22;37695;52.960;6.188;2023-03-11T12:28:45;5.90;99.90
51615;DHT22;37695;52.960;6.188;2023-03-11T12:31:13;6.00;99.90
51615;DHT22;37695;52.960;6.188;2023-03-11T12:33:45;6.00;99.90
51615;DHT22;37695;52.960;6.188;2023-03-11T12:36:40;6.00;99.90
51615;DHT22;37695;52.960;6.188;2023-03-11T12:39:17;6.00;99.90
51615;DHT22;37695;52.960;6.188;2023-03-11T12:41:44;5.90;99.90
51615;DHT22;37695;52.960;6.188;2023-03-11T12:44:19;6.00;99.90
51615;DHT22;37695;52.960;6.188;2023-03-11T12:46:59;5.90;99.90
51615;DHT22;37695;52.960;6.188;2023-03-11T12:49:29;5.90;99.90
51615;DHT22;37695;52.960;6.188;2023-03-11T12:54:43;5.90;99.90
51615;DHT22;37695;52.960;6.188;2023-03-11T13:00:21;5.90;99.90
51615;DHT22;37695;52.960;6.188;2023-03-11T13:06:14;5.90;99.90
51615;DHT22;37695;52.960;6.188;2023-03-11T13:08:47;5.80;99.90
51615;DHT22;37695;52.960;6.188;2023-03-11T13:11:37;5.90;99.90
51615;DHT22;37695;52.960;6.188;2023-03-11T13:16:46;5.90;99.90
51615;DHT22;37695;52.960;6.188;2023-03-11T13:21:51;5.90;99.90
51615;DHT22;37695;52.960;6.188;2023-03-11T13:29:43;6.00;99.90
51615;DHT22;37695;52.960;6.188;2023-03-11T13:34:47;6.10;99.90
51615;DHT22;37695;52.960;6.188;2023-03-11T13:37:43;6.10;99.90
51615;DHT22;37695;52.960;6.188;2023-03-11T13:40:31;6.20;99.90
51615;DHT22;37695;52.960;6.188;2023-03-11T13:43:02;6.30;99.90
51615;DHT22;37695;52.960;6.188;2023-03-11T13:45:30;6.30;99.90
51615;DHT22;37695;52.960;6.188;2023-03-11T13:48:04;6.30;99.90
51615;DHT22;37695;52.960;6.188;2023-03-11T13:50:37;6.40;99.90
51615;DHT22;37695;52.960;6.188;2023-03-11T13:53:08;6.40;99.90
51615;DHT22;37695;52.960;6.188;2023-03-11T13:55:40;6.40;99.90
51615;DHT22;37695;52.960;6.188;2023-03-11T13:58:15;6.40;99.90
51615;DHT22;37695;52.960;6.188;2023-03-11T14:00:53;6.40;99.90
51615;DHT22;37695;52.960;6.188;2023-03-11T14:03:20;6.50;99.90
51615;DHT22;37695;52.960;6.188;2023-03-11T14:06:01;6.50;99.90
51615;DHT22;37695;52.960;6.188;2023-03-11T14:08:32;6.50;99.90
51615;DHT22;37695;52.960;6.188;2023-03-11T14:11:14;6.60;99.90
51615;DHT22;37695;52.960;6.188;2023-03-11T14:13:46;6.60;99.90
51615;DHT22;37695;52.960;6.188;2023-03-11T14:19:15;6.50;99.90
51615;DHT22;37695;52.960;6.188;2023-03-11T14:21:42;6.60;99.90
51615;DHT22;37695;52.960;6.188;2023-03-11T14:24:15;6.60;99.90
51615;DHT22;37695;52.960;6.188;2023-03-11T14:26:41;6.60;99.90
51615;DHT22;37695;52.960;6.188;2023-03-11T14:29:10;6.60;99.90
51615;DHT22;37695;52.960;6.188;2023-03-11T14:31:40;6.60;99.90
51615;DHT22;37695;52.960;6.188;2023-03-11T14:34:22;6.60;99.90
51615;DHT22;37695;52.960;6.188;2023-03-11T14:36:51;6.60;99.90
51615;DHT22;37695;52.960;6.188;2023-03-11T14:39:36;6.60;99.90
51615;DHT22;37695;52.960;6.188;2023-03-11T14:42:27;6.70;99.90
51615;DHT22;37695;52.960;6.188;2023-03-11T14:45:03;6.50;99.90
51615;DHT22;37695;52.960;6.188;2023-03-11T14:47:38;6.60;99.90
51615;DHT22;37695;52.960;6.188;2023-03-11T14:50:31;6.40;99.90
51615;DHT22;37695;52.960;6.188;2023-03-11T14:53:04;6.10;99.90
51615;DHT22;37695;52.960;6.188;2023-03-11T14:55:34;5.90;99.90
51615;DHT22;37695;52.960;6.188;2023-03-11T14:58:13;5.70;99.90
51615;DHT22;37695;52.960;6.188;2023-03-11T15:00:47;5.50;99.90
51615;DHT22;37695;52.960;6.188;2023-03-11T15:03:20;5.50;99.90
51615;DHT22;37695;52.960;6.188;2023-03-11T15:05:50;5.40;99.90
51615;DHT22;37695;52.960;6.188;2023-03-11T15:08:22;5.40;99.90
51615;DHT22;37695;52.960;6.188;2023-03-11T15:13:29;5.30;99.90
51615;DHT22;37695;52.960;6.188;2023-03-11T15:15:59;5.20;99.90
51615;DHT22;37695;52.960;6.188;2023-03-11T15:18:34;5.20;99.90
51615;DHT22;37695;52.960;6.188;2023-03-11T15:21:16;5.20;99.90
51615;DHT22;37695;52.960;6.188;2023-03-11T15:23:51;5.10;99.90
51615;DHT22;37695;52.960;6.188;2023-03-11T15:26:23;5.10;99.90
51615;DHT22;37695;52.960;6.188;2023-03-11T15:29:01;5.10;99.90
51615;DHT22;37695;52.960;6.188;2023-03-11T15:31:30;5.00;99.90
51615;DHT22;37695;52.960;6.188;2023-03-11T15:36:54;4.70;99.90
51615;DHT22;37695;52.960;6.188;2023-03-11T15:41:57;4.70;99.90
51615;DHT22;37695;52.960;6.188;2023-03-11T15:44:29;4.70;99.90
51615;DHT22;37695;52.960;6.188;2023-03-11T15:46:56;4.80;99.90
51615;DHT22;37695;52.960;6.188;2023-03-11T15:49:24;4.90;99.90
51615;DHT22;37695;52.960;6.188;2023-03-11T15:51:50;4.90;99.90
51615;DHT22;37695;52.960;6.188;2023-03-11T15:54:15;4.80;99.90
51615;DHT22;37695;52.960;6.188;2023-03-11T15:56:41;4.70;99.90
51615;DHT22;37695;52.960;6.188;2023-03-11T15:59:15;4.60;99.90
51615;DHT22;37695;52.960;6.188;2023-03-11T16:01:41;4.50;99.90
51615;DHT22;37695;52.960;6.188;2023-03-11T16:04:15;4.50;99.90
51615;DHT22;37695;52.960;6.188;2023-03-11T16:06:41;4.40;99.90
51615;DHT22;37695;52.960;6.188;2023-03-11T16:09:08;4.40;99.90
51615;DHT22;37695;52.960;6.188;2023-03-11T16:11:34;4.30;99.90
51615;DHT22;37695;52.960;6.188;2023-03-11T16:14:00;4.30;99.90
51615;DHT22;37695;52.960;6.188;2023-03-11T16:16:25;4.30;99.90
51615;DHT22;37695;52.960;6.188;2023-03-11T16:18:51;4.30;99.90
51615;DHT22;37695;52.960;6.188;2023-03-11T16:21:18;4.30;99.90
51615;DHT22;37695;52.960;6.188;2023-03-11T16:23:46;4.20;99.90
51615;DHT22;37695;52.960;6.188;2023-03-11T16:26:13;4.20;99.90
51615;DHT22;37695;52.960;6.188;2023-03-11T16:28:39;4.20;99.90
51615;DHT22;37695;52.960;6.188;2023-03-11T16:31:05;4.20;99.90
51615;DHT22;37695;52.960;6.188;2023-03-11T16:33:33;4.20;99.90
51615;DHT22;37695;52.960;6.188;2023-03-11T16:35:58;4.30;99.90
51615;DHT22;37695;52.960;6.188;2023-03-11T16:38:24;4.30;99.90
51615;DHT22;37695;52.960;6.188;2023-03-11T16:41:00;4.30;99.90
51615;DHT22;37695;52.960;6.188;2023-03-11T16:43:27;4.30;99.90
51615;DHT22;37695;52.960;6.188;2023-03-11T16:45:54;4.30;99.90
51615;DHT22;37695;52.960;6.188;2023-03-11T16:48:21;4.40;99.90
51615;DHT22;37695;52.960;6.188;2023-03-11T16:50:46;4.60;99.90
51615;DHT22;37695;52.960;6.188;2023-03-11T16:53:12;4.80;99.90
51615;DHT22;37695;52.960;6.188;2023-03-11T16:55:41;5.10;99.90
51615;DHT22;37695;52.960;6.188;2023-03-11T16:58:07;5.30;99.90
51615;DHT22;37695;52.960;6.188;2023-03-11T17:00:35;5.40;99.90
51615;DHT22;37695;52.960;6.188;2023-03-11T17:03:01;5.40;99.90
51615;DHT22;37695;52.960;6.188;2023-03-11T17:05:26;5.30;99.90